sensor_id;sensor_type;location;lat;lon;timestamp;P1;durP1;ratioP1;P2;durP2;ratioP2
29370;SDS011;16357;52.188;7.838;2023-04-16T00:01:30;40.42;;;24.05;;
29370;SDS011;16357;52.188;7.838;2023-04-16T00:03:56;41.65;;;25.27;;
29370;SDS011;16357;52.188;7.838;2023-04-16T00:06:23;40.83;;;24.92;;
29370;SDS011;16357;52.188;7.838;2023-04-16T00:08:49;39.53;;;24.15;;
29370;SDS011;16357;52.188;7.838;2023-04-16T00:11:16;40.70;;;24.17;;
29370;SDS011;16357;52.188;7.838;2023-04-16T00:13:43;42.10;;;24.08;;
29370;SDS011;16357;52.188;7.838;2023-04-16T00:16:09;45.60;;;25.63;;
29370;SDS011;16357;52.188;7.838;2023-04-16T00:18:36;42.47;;;24.85;;
29370;SDS011;16357;52.188;7.838;2023-04-16T00:21:02;38.47;;;24.45;;
29370;SDS011;16357;52.188;7.838;2023-04-16T00:23:28;45.05;;;26.33;;
29370;SDS011;16357;52.188;7.838;2023-04-16T00:25:55;40.42;;;25.63;;
29370;SDS011;16357;52.188;7.838;2023-04-16T00:28:25;37.33;;;24.33;;
29370;SDS011;16357;52.188;7.838;2023-04-16T00:30:52;38.80;;;24.33;;
29370;SDS011;16357;52.188;7.838;2023-04-16T00:33:19;43.55;;;23.98;;
29370;SDS011;16357;52.188;7.838;2023-04-16T00:35:46;36.28;;;24.02;;
29370;SDS011;16357;52.188;7.838;2023-04-16T00:38:13;43.35;;;25.10;;
29370;SDS011;16357;52.188;7.838;2023-04-16T00:40:40;37.75;;;23.58;;
29370;SDS011;16357;52.188;7.838;2023-04-16T00:43:06;43.13;;;25.70;;
29370;SDS011;16357;52.188;7.838;2023-04-16T00:45:33;36.88;;;24.85;;
29370;SDS011;16357;52.188;7.838;2023-04-16T00:47:59;39.97;;;24.88;;
29370;SDS011;16357;52.188;7.838;2023-04-16T00:50:27;38.08;;;24.95;;
29370;SDS011;16357;52.188;7.838;2023-04-16T00:52:54;43.83;;;25.33;;
29370;SDS011;16357;52.188;7.838;2023-04-16T00:55:21;37.70;;;26.27;;
29370;SDS011;16357;52.188;7.838;2023-04-16T00:57:48;38.75;;;25.27;;
29370;SDS011;16357;52.188;7.838;2023-04-16T01:00:14;37.78;;;24.50;;
29370;SDS011;16357;52.188;7.838;2023-04-16T01:02:41;42.35;;;25.85;;
29370;SDS011;16357;52.188;7.838;2023-04-16T01:05:07;35.15;;;24.48;;
29370;SDS011;16357;52.188;7.838;2023-04-16T01:07:34;39.85;;;25.58;;
29370;SDS011;16357;52.188;7.838;2023-04-16T01:10:01;34.25;;;24.88;;
29370;SDS011;16357;52.188;7.838;2023-04-16T01:12:27;42.90;;;25.45;;
29370;SDS011;16357;52.188;7.838;2023-04-16T01:14:55;37.55;;;26.10;;
29370;SDS011;16357;52.188;7.838;2023-04-16T01:17:22;43.58;;;26.92;;
29370;SDS011;16357;52.188;7.838;2023-04-16T01:19:48;40.92;;;26.38;;
29370;SDS011;16357;52.188;7.838;2023-04-16T01:22:15;44.80;;;28.05;;
29370;SDS011;16357;52.188;7.838;2023-04-16T01:24:41;42.97;;;27.65;;
29370;SDS011;16357;52.188;7.838;2023-04-16T01:27:07;42.58;;;27.75;;
29370;SDS011;16357;52.188;7.838;2023-04-16T01:29:34;45.33;;;28.02;;
29370;SDS011;16357;52.188;7.838;2023-04-16T01:32:00;38.22;;;26.23;;
29370;SDS011;16357;52.188;7.838;2023-04-16T01:34:27;42.50;;;27.75;;
29370;SDS011;16357;52.188;7.838;2023-04-16T01:36:53;47.15;;;28.48;;
29370;SDS011;16357;52.188;7.838;2023-04-16T01:39:20;40.50;;;28.15;;
29370;SDS011;16357;52.188;7.838;2023-04-16T01:41:46;43.65;;;27.40;;
29370;SDS011;16357;52.188;7.838;2023-04-16T01:44:12;41.28;;;27.25;;
29370;SDS011;16357;52.188;7.838;2023-04-16T01:46:39;50.25;;;28.27;;
29370;SDS011;16357;52.188;7.838;2023-04-16T01:49:05;44.40;;;27.48;;
29370;SDS011;16357;52.188;7.838;2023-04-16T01:51:32;40.30;;;27.23;;
29370;SDS011;16357;52.188;7.838;2023-04-16T01:53:59;36.90;;;26.20;;
29370;SDS011;16357;52.188;7.838;2023-04-16T01:56:26;42.80;;;27.88;;
29370;SDS011;16357;52.188;7.838;2023-04-16T01:58:52;43.30;;;26.75;;
29370;SDS011;16357;52.188;7.838;2023-04-16T02:01:19;43.15;;;27.08;;
29370;SDS011;16357;52.188;7.838;2023-04-16T02:03:45;36.63;;;26.27;;
29370;SDS011;16357;52.188;7.838;2023-04-16T02:06:12;40.22;;;26.63;;
29370;SDS011;16357;52.188;7.838;2023-04-16T02:08:40;40.92;;;26.95;;
29370;SDS011;16357;52.188;7.838;2023-04-16T02:11:06;44.72;;;28.40;;
29370;SDS011;16357;52.188;7.838;2023-04-16T02:13:33;41.28;;;27.23;;
29370;SDS011;16357;52.188;7.838;2023-04-16T02:15:59;34.33;;;25.35;;
29370;SDS011;16357;52.188;7.838;2023-04-16T02:18:26;44.75;;;27.13;;
29370;SDS011;16357;52.188;7.838;2023-04-16T02:20:52;38.10;;;26.83;;
29370;SDS011;16357;52.188;7.838;2023-04-16T02:23:19;36.78;;;25.90;;
29370;SDS011;16357;52.188;7.838;2023-04-16T02:25:45;39.25;;;27.05;;
29370;SDS011;16357;52.188;7.838;2023-04-16T02:28:14;39.85;;;26.20;;
29370;SDS011;16357;52.188;7.838;2023-04-16T02:30:41;38.15;;;27.00;;
29370;SDS011;16357;52.188;7.838;2023-04-16T02:33:09;41.83;;;27.80;;
29370;SDS011;16357;52.188;7.838;2023-04-16T02:35:37;39.50;;;26.30;;
29370;SDS011;16357;52.188;7.838;2023-04-16T02:38:05;38.72;;;28.50;;
29370;SDS011;16357;52.188;7.838;2023-04-16T02:40:32;40.47;;;28.65;;
29370;SDS011;16357;52.188;7.838;2023-04-16T02:42:58;40.30;;;27.70;;
29370;SDS011;16357;52.188;7.838;2023-04-16T02:45:25;40.30;;;28.02;;
29370;SDS011;16357;52.188;7.838;2023-04-16T02:47:51;38.95;;;26.80;;
29370;SDS011;16357;52.188;7.838;2023-04-16T02:50:18;43.20;;;28.13;;
29370;SDS011;16357;52.188;7.838;2023-04-16T02:52:45;37.75;;;28.05;;
29370;SDS011;16357;52.188;7.838;2023-04-16T02:55:11;46.08;;;29.25;;
29370;SDS011;16357;52.188;7.838;2023-04-16T02:57:37;41.53;;;28.42;;
29370;SDS011;16357;52.188;7.838;2023-04-16T03:00:04;45.15;;;29.98;;
29370;SDS011;16357;52.188;7.838;2023-04-16T03:02:31;43.45;;;30.05;;
29370;SDS011;16357;52.188;7.838;2023-04-16T03:04:57;46.30;;;30.38;;
29370;SDS011;16357;52.188;7.838;2023-04-16T03:07:24;44.75;;;31.23;;
29370;SDS011;16357;52.188;7.838;2023-04-16T03:09:51;42.92;;;29.38;;
29370;SDS011;16357;52.188;7.838;2023-04-16T03:12:17;42.30;;;31.38;;
29370;SDS011;16357;52.188;7.838;2023-04-16T03:14:43;47.55;;;33.00;;
29370;SDS011;16357;52.188;7.838;2023-04-16T03:17:10;41.33;;;31.45;;
29370;SDS011;16357;52.188;7.838;2023-04-16T03:19:36;46.30;;;31.45;;
29370;SDS011;16357;52.188;7.838;2023-04-16T03:22:03;50.22;;;33.58;;
29370;SDS011;16357;52.188;7.838;2023-04-16T03:24:29;46.25;;;33.28;;
29370;SDS011;16357;52.188;7.838;2023-04-16T03:26:56;49.67;;;32.63;;
29370;SDS011;16357;52.188;7.838;2023-04-16T03:29:24;51.50;;;34.80;;
29370;SDS011;16357;52.188;7.838;2023-04-16T03:31:51;50.55;;;34.58;;
29370;SDS011;16357;52.188;7.838;2023-04-16T03:34:18;56.13;;;35.78;;
29370;SDS011;16357;52.188;7.838;2023-04-16T03:36:44;53.88;;;34.20;;
29370;SDS011;16357;52.188;7.838;2023-04-16T03:39:11;47.70;;;33.90;;
29370;SDS011;16357;52.188;7.838;2023-04-16T03:41:37;49.28;;;33.20;;
29370;SDS011;16357;52.188;7.838;2023-04-16T03:44:04;47.08;;;32.03;;
29370;SDS011;16357;52.188;7.838;2023-04-16T03:46:30;49.17;;;31.58;;
29370;SDS011;16357;52.188;7.838;2023-04-16T03:48:57;47.60;;;31.60;;
29370;SDS011;16357;52.188;7.838;2023-04-16T03:51:23;46.45;;;31.70;;
29370;SDS011;16357;52.188;7.838;2023-04-16T03:53:50;51.05;;;32.42;;
29370;SDS011;16357;52.188;7.838;2023-04-16T03:56:16;46.17;;;30.77;;
29370;SDS011;16357;52.188;7.838;2023-04-16T03:58:43;47.35;;;31.70;;
29370;SDS011;16357;52.188;7.838;2023-04-16T04:01:09;47.95;;;32.00;;
29370;SDS011;16357;52.188;7.838;2023-04-16T04:03:35;49.55;;;31.65;;
29370;SDS011;16357;52.188;7.838;2023-04-16T04:06:09;51.17;;;31.13;;
29370;SDS011;16357;52.188;7.838;2023-04-16T04:08:35;49.55;;;31.48;;
29370;SDS011;16357;52.188;7.838;2023-04-16T04:11:01;41.50;;;29.73;;
29370;SDS011;16357;52.188;7.838;2023-04-16T04:13:28;44.30;;;29.83;;
29370;SDS011;16357;52.188;7.838;2023-04-16T04:15:54;43.42;;;29.92;;
29370;SDS011;16357;52.188;7.838;2023-04-16T04:18:21;42.33;;;29.88;;
29370;SDS011;16357;52.188;7.838;2023-04-16T04:20:47;43.40;;;30.23;;
29370;SDS011;16357;52.188;7.838;2023-04-16T04:23:13;50.05;;;32.28;;
29370;SDS011;16357;52.188;7.838;2023-04-16T04:25:40;47.55;;;31.08;;
29370;SDS011;16357;52.188;7.838;2023-04-16T04:28:07;50.83;;;32.53;;
29370;SDS011;16357;52.188;7.838;2023-04-16T04:30:33;49.78;;;32.60;;
29370;SDS011;16357;52.188;7.838;2023-04-16T04:33:00;48.03;;;32.97;;
29370;SDS011;16357;52.188;7.838;2023-04-16T04:35:27;46.60;;;32.38;;
29370;SDS011;16357;52.188;7.838;2023-04-16T04:37:53;49.97;;;33.03;;
29370;SDS011;16357;52.188;7.838;2023-04-16T04:40:20;51.92;;;33.70;;
29370;SDS011;16357;52.188;7.838;2023-04-16T04:42:47;51.13;;;33.03;;
29370;SDS011;16357;52.188;7.838;2023-04-16T04:45:13;52.15;;;33.75;;
29370;SDS011;16357;52.188;7.838;2023-04-16T04:47:39;51.33;;;34.25;;
29370;SDS011;16357;52.188;7.838;2023-04-16T04:50:06;51.30;;;32.78;;
29370;SDS011;16357;52.188;7.838;2023-04-16T04:52:33;55.65;;;35.05;;
29370;SDS011;16357;52.188;7.838;2023-04-16T04:54:59;46.03;;;33.13;;
29370;SDS011;16357;52.188;7.838;2023-04-16T04:57:26;53.60;;;35.45;;
29370;SDS011;16357;52.188;7.838;2023-04-16T04:59:52;56.28;;;35.10;;
29370;SDS011;16357;52.188;7.838;2023-04-16T05:02:19;49.25;;;34.33;;
29370;SDS011;16357;52.188;7.838;2023-04-16T05:04:45;44.53;;;32.35;;
29370;SDS011;16357;52.188;7.838;2023-04-16T05:07:12;48.47;;;33.10;;
29370;SDS011;16357;52.188;7.838;2023-04-16T05:09:38;48.63;;;33.08;;
29370;SDS011;16357;52.188;7.838;2023-04-16T05:12:04;45.40;;;31.52;;
29370;SDS011;16357;52.188;7.838;2023-04-16T05:14:31;44.90;;;30.98;;
29370;SDS011;16357;52.188;7.838;2023-04-16T05:16:58;44.03;;;31.48;;
29370;SDS011;16357;52.188;7.838;2023-04-16T05:19:24;50.80;;;34.35;;
29370;SDS011;16357;52.188;7.838;2023-04-16T05:21:51;44.25;;;32.40;;
29370;SDS011;16357;52.188;7.838;2023-04-16T05:24:18;46.88;;;31.95;;
29370;SDS011;16357;52.188;7.838;2023-04-16T05:26:44;48.17;;;32.05;;
29370;SDS011;16357;52.188;7.838;2023-04-16T05:29:11;43.65;;;30.88;;
29370;SDS011;16357;52.188;7.838;2023-04-16T05:31:37;44.30;;;30.77;;
29370;SDS011;16357;52.188;7.838;2023-04-16T05:34:04;43.65;;;31.20;;
29370;SDS011;16357;52.188;7.838;2023-04-16T05:36:30;45.83;;;31.90;;
29370;SDS011;16357;52.188;7.838;2023-04-16T05:38:57;48.72;;;32.90;;
29370;SDS011;16357;52.188;7.838;2023-04-16T05:41:23;45.13;;;31.65;;
29370;SDS011;16357;52.188;7.838;2023-04-16T05:43:49;45.72;;;31.50;;
29370;SDS011;16357;52.188;7.838;2023-04-16T05:46:16;47.63;;;32.05;;
29370;SDS011;16357;52.188;7.838;2023-04-16T05:48:42;45.15;;;31.20;;
29370;SDS011;16357;52.188;7.838;2023-04-16T05:51:09;46.83;;;32.88;;
29370;SDS011;16357;52.188;7.838;2023-04-16T05:53:35;46.17;;;32.67;;
29370;SDS011;16357;52.188;7.838;2023-04-16T05:56:01;48.50;;;32.72;;
29370;SDS011;16357;52.188;7.838;2023-04-16T05:58:28;45.22;;;32.63;;
29370;SDS011;16357;52.188;7.838;2023-04-16T06:00:54;44.97;;;30.92;;
29370;SDS011;16357;52.188;7.838;2023-04-16T06:03:20;43.55;;;31.67;;
29370;SDS011;16357;52.188;7.838;2023-04-16T06:05:47;45.72;;;31.02;;
29370;SDS011;16357;52.188;7.838;2023-04-16T06:08:13;42.40;;;31.15;;
29370;SDS011;16357;52.188;7.838;2023-04-16T06:10:40;46.00;;;32.25;;
29370;SDS011;16357;52.188;7.838;2023-04-16T06:13:06;46.15;;;31.08;;
29370;SDS011;16357;52.188;7.838;2023-04-16T06:15:32;45.03;;;31.40;;
29370;SDS011;16357;52.188;7.838;2023-04-16T06:17:59;42.55;;;29.55;;
29370;SDS011;16357;52.188;7.838;2023-04-16T06:20:26;47.90;;;32.25;;
29370;SDS011;16357;52.188;7.838;2023-04-16T06:22:52;45.28;;;33.00;;
29370;SDS011;16357;52.188;7.838;2023-04-16T06:25:19;41.15;;;29.75;;
29370;SDS011;16357;52.188;7.838;2023-04-16T06:27:45;45.55;;;30.75;;
29370;SDS011;16357;52.188;7.838;2023-04-16T06:30:12;42.97;;;30.73;;
29370;SDS011;16357;52.188;7.838;2023-04-16T06:32:39;42.17;;;30.20;;
29370;SDS011;16357;52.188;7.838;2023-04-16T06:35:06;46.90;;;31.42;;
29370;SDS011;16357;52.188;7.838;2023-04-16T06:37:32;40.75;;;29.90;;
29370;SDS011;16357;52.188;7.838;2023-04-16T06:39:59;44.92;;;30.65;;
29370;SDS011;16357;52.188;7.838;2023-04-16T06:42:26;47.03;;;31.98;;
29370;SDS011;16357;52.188;7.838;2023-04-16T06:44:52;43.30;;;30.63;;
29370;SDS011;16357;52.188;7.838;2023-04-16T06:47:19;42.58;;;30.98;;
29370;SDS011;16357;52.188;7.838;2023-04-16T06:49:46;44.47;;;30.95;;
29370;SDS011;16357;52.188;7.838;2023-04-16T06:52:12;40.35;;;29.83;;
29370;SDS011;16357;52.188;7.838;2023-04-16T06:54:38;45.20;;;31.23;;
29370;SDS011;16357;52.188;7.838;2023-04-16T06:57:05;42.10;;;30.75;;
29370;SDS011;16357;52.188;7.838;2023-04-16T06:59:31;44.40;;;30.52;;
29370;SDS011;16357;52.188;7.838;2023-04-16T07:01:57;41.70;;;30.02;;
29370;SDS011;16357;52.188;7.838;2023-04-16T07:04:24;43.15;;;29.70;;
29370;SDS011;16357;52.188;7.838;2023-04-16T07:06:51;44.63;;;29.98;;
29370;SDS011;16357;52.188;7.838;2023-04-16T07:09:17;41.75;;;29.75;;
29370;SDS011;16357;52.188;7.838;2023-04-16T07:11:44;40.42;;;30.65;;
29370;SDS011;16357;52.188;7.838;2023-04-16T07:14:10;41.28;;;29.70;;
29370;SDS011;16357;52.188;7.838;2023-04-16T07:16:37;42.40;;;29.67;;
29370;SDS011;16357;52.188;7.838;2023-04-16T07:19:03;43.17;;;30.27;;
29370;SDS011;16357;52.188;7.838;2023-04-16T07:21:29;41.20;;;30.52;;
29370;SDS011;16357;52.188;7.838;2023-04-16T07:23:56;42.30;;;30.08;;
29370;SDS011;16357;52.188;7.838;2023-04-16T07:26:23;39.78;;;29.67;;
29370;SDS011;16357;52.188;7.838;2023-04-16T07:28:49;40.72;;;29.23;;
29370;SDS011;16357;52.188;7.838;2023-04-16T07:31:16;39.22;;;29.35;;
29370;SDS011;16357;52.188;7.838;2023-04-16T07:33:42;42.03;;;29.00;;
29370;SDS011;16357;52.188;7.838;2023-04-16T07:36:09;39.15;;;29.02;;
29370;SDS011;16357;52.188;7.838;2023-04-16T07:38:36;38.88;;;28.75;;
29370;SDS011;16357;52.188;7.838;2023-04-16T07:41:02;40.35;;;28.60;;
29370;SDS011;16357;52.188;7.838;2023-04-16T07:43:29;37.40;;;27.27;;
29370;SDS011;16357;52.188;7.838;2023-04-16T07:45:58;39.88;;;29.08;;
29370;SDS011;16357;52.188;7.838;2023-04-16T07:48:24;35.28;;;26.77;;
29370;SDS011;16357;52.188;7.838;2023-04-16T07:50:51;38.85;;;27.50;;
29370;SDS011;16357;52.188;7.838;2023-04-16T07:53:17;36.65;;;27.65;;
29370;SDS011;16357;52.188;7.838;2023-04-16T07:55:44;34.75;;;26.17;;
29370;SDS011;16357;52.188;7.838;2023-04-16T07:58:10;39.17;;;27.50;;
29370;SDS011;16357;52.188;7.838;2023-04-16T08:00:36;34.75;;;26.60;;
29370;SDS011;16357;52.188;7.838;2023-04-16T08:03:03;34.45;;;25.92;;
29370;SDS011;16357;52.188;7.838;2023-04-16T08:05:30;35.58;;;25.30;;
29370;SDS011;16357;52.188;7.838;2023-04-16T08:07:56;36.35;;;27.05;;
29370;SDS011;16357;52.188;7.838;2023-04-16T08:10:22;32.63;;;25.55;;
29370;SDS011;16357;52.188;7.838;2023-04-16T08:12:49;35.15;;;26.45;;
29370;SDS011;16357;52.188;7.838;2023-04-16T08:15:15;36.45;;;26.98;;
29370;SDS011;16357;52.188;7.838;2023-04-16T08:17:42;35.35;;;26.42;;
29370;SDS011;16357;52.188;7.838;2023-04-16T08:20:08;34.25;;;26.17;;
29370;SDS011;16357;52.188;7.838;2023-04-16T08:22:39;33.97;;;25.95;;
29370;SDS011;16357;52.188;7.838;2023-04-16T08:25:06;31.50;;;24.48;;
29370;SDS011;16357;52.188;7.838;2023-04-16T08:27:33;32.22;;;24.30;;
29370;SDS011;16357;52.188;7.838;2023-04-16T08:29:59;33.95;;;24.98;;
29370;SDS011;16357;52.188;7.838;2023-04-16T08:32:25;33.08;;;24.30;;
29370;SDS011;16357;52.188;7.838;2023-04-16T08:34:52;30.70;;;23.73;;
29370;SDS011;16357;52.188;7.838;2023-04-16T08:37:18;29.40;;;23.52;;
29370;SDS011;16357;52.188;7.838;2023-04-16T08:39:45;31.50;;;24.63;;
29370;SDS011;16357;52.188;7.838;2023-04-16T08:42:20;32.70;;;23.25;;
29370;SDS011;16357;52.188;7.838;2023-04-16T08:44:52;32.30;;;24.20;;
29370;SDS011;16357;52.188;7.838;2023-04-16T08:49:57;30.00;;;22.83;;
29370;SDS011;16357;52.188;7.838;2023-04-16T08:52:24;29.90;;;21.40;;
29370;SDS011;16357;52.188;7.838;2023-04-16T08:55:02;26.05;;;20.95;;
29370;SDS011;16357;52.188;7.838;2023-04-16T08:57:53;29.10;;;21.55;;
29370;SDS011;16357;52.188;7.838;2023-04-16T09:00:23;27.00;;;20.33;;
29370;SDS011;16357;52.188;7.838;2023-04-16T09:02:50;24.10;;;19.23;;
29370;SDS011;16357;52.188;7.838;2023-04-16T09:05:18;24.88;;;19.23;;
29370;SDS011;16357;52.188;7.838;2023-04-16T09:07:47;26.73;;;19.00;;
29370;SDS011;16357;52.188;7.838;2023-04-16T09:10:14;25.17;;;19.15;;
29370;SDS011;16357;52.188;7.838;2023-04-16T09:12:41;25.52;;;18.08;;
29370;SDS011;16357;52.188;7.838;2023-04-16T09:15:11;25.90;;;17.30;;
29370;SDS011;16357;52.188;7.838;2023-04-16T09:17:38;21.60;;;17.02;;
29370;SDS011;16357;52.188;7.838;2023-04-16T09:20:06;22.52;;;17.67;;
29370;SDS011;16357;52.188;7.838;2023-04-16T09:22:38;23.98;;;18.42;;
29370;SDS011;16357;52.188;7.838;2023-04-16T09:25:07;23.00;;;17.98;;
29370;SDS011;16357;52.188;7.838;2023-04-16T09:27:34;21.17;;;16.60;;
29370;SDS011;16357;52.188;7.838;2023-04-16T09:30:17;20.75;;;15.90;;
29370;SDS011;16357;52.188;7.838;2023-04-16T09:32:44;22.70;;;17.00;;
29370;SDS011;16357;52.188;7.838;2023-04-16T09:35:11;20.90;;;15.75;;
29370;SDS011;16357;52.188;7.838;2023-04-16T09:37:37;20.42;;;15.65;;
29370;SDS011;16357;52.188;7.838;2023-04-16T09:40:04;20.42;;;16.52;;
29370;SDS011;16357;52.188;7.838;2023-04-16T09:42:31;18.88;;;15.77;;
29370;SDS011;16357;52.188;7.838;2023-04-16T09:45:00;23.33;;;16.23;;
29370;SDS011;16357;52.188;7.838;2023-04-16T09:47:38;19.63;;;15.65;;
29370;SDS011;16357;52.188;7.838;2023-04-16T09:50:09;21.45;;;15.55;;
29370;SDS011;16357;52.188;7.838;2023-04-16T09:52:43;21.52;;;15.77;;
29370;SDS011;16357;52.188;7.838;2023-04-16T09:55:12;19.90;;;15.80;;
29370;SDS011;16357;52.188;7.838;2023-04-16T09:57:39;18.52;;;15.00;;
29370;SDS011;16357;52.188;7.838;2023-04-16T10:00:06;17.63;;;14.18;;
29370;SDS011;16357;52.188;7.838;2023-04-16T10:02:34;18.20;;;14.20;;
29370;SDS011;16357;52.188;7.838;2023-04-16T10:05:04;17.52;;;14.32;;
29370;SDS011;16357;52.188;7.838;2023-04-16T10:07:35;16.88;;;13.85;;
29370;SDS011;16357;52.188;7.838;2023-04-16T10:10:02;18.35;;;14.15;;
29370;SDS011;16357;52.188;7.838;2023-04-16T10:12:29;18.52;;;13.13;;
29370;SDS011;16357;52.188;7.838;2023-04-16T10:14:58;17.23;;;13.15;;
29370;SDS011;16357;52.188;7.838;2023-04-16T10:17:24;16.75;;;13.38;;
29370;SDS011;16357;52.188;7.838;2023-04-16T10:19:52;19.45;;;14.43;;
29370;SDS011;16357;52.188;7.838;2023-04-16T10:22:19;22.45;;;13.65;;
29370;SDS011;16357;52.188;7.838;2023-04-16T10:24:46;16.92;;;12.73;;
29370;SDS011;16357;52.188;7.838;2023-04-16T10:27:13;17.92;;;13.77;;
29370;SDS011;16357;52.188;7.838;2023-04-16T10:29:41;17.42;;;12.90;;
29370;SDS011;16357;52.188;7.838;2023-04-16T10:32:09;17.88;;;13.30;;
29370;SDS011;16357;52.188;7.838;2023-04-16T10:34:36;17.02;;;13.23;;
29370;SDS011;16357;52.188;7.838;2023-04-16T10:37:03;17.17;;;13.40;;
29370;SDS011;16357;52.188;7.838;2023-04-16T10:39:30;15.25;;;12.13;;
29370;SDS011;16357;52.188;7.838;2023-04-16T10:42:09;17.00;;;13.25;;
29370;SDS011;16357;52.188;7.838;2023-04-16T10:44:38;14.50;;;11.70;;
29370;SDS011;16357;52.188;7.838;2023-04-16T10:47:10;15.50;;;12.15;;
29370;SDS011;16357;52.188;7.838;2023-04-16T10:49:38;16.25;;;11.88;;
29370;SDS011;16357;52.188;7.838;2023-04-16T10:54:42;17.42;;;12.07;;
29370;SDS011;16357;52.188;7.838;2023-04-16T10:57:09;14.57;;;11.63;;
29370;SDS011;16357;52.188;7.838;2023-04-16T10:59:41;18.20;;;10.88;;
29370;SDS011;16357;52.188;7.838;2023-04-16T11:02:13;15.32;;;11.77;;
29370;SDS011;16357;52.188;7.838;2023-04-16T11:04:41;15.57;;;11.77;;
29370;SDS011;16357;52.188;7.838;2023-04-16T11:15:15;17.33;;;12.45;;
29370;SDS011;16357;52.188;7.838;2023-04-16T11:17:45;17.33;;;12.55;;
29370;SDS011;16357;52.188;7.838;2023-04-16T11:20:17;17.15;;;11.98;;
29370;SDS011;16357;52.188;7.838;2023-04-16T11:22:49;15.05;;;12.43;;
29370;SDS011;16357;52.188;7.838;2023-04-16T11:25:18;16.83;;;11.35;;
29370;SDS011;16357;52.188;7.838;2023-04-16T11:27:45;17.70;;;12.95;;
29370;SDS011;16357;52.188;7.838;2023-04-16T11:30:12;17.35;;;12.95;;
29370;SDS011;16357;52.188;7.838;2023-04-16T11:32:39;17.45;;;13.20;;
29370;SDS011;16357;52.188;7.838;2023-04-16T11:35:18;17.98;;;12.98;;
29370;SDS011;16357;52.188;7.838;2023-04-16T11:37:45;17.10;;;11.95;;
29370;SDS011;16357;52.188;7.838;2023-04-16T11:40:13;17.00;;;12.70;;
29370;SDS011;16357;52.188;7.838;2023-04-16T11:42:40;15.77;;;12.07;;
29370;SDS011;16357;52.188;7.838;2023-04-16T11:45:08;16.15;;;12.77;;
29370;SDS011;16357;52.188;7.838;2023-04-16T11:47:42;14.63;;;12.07;;
29370;SDS011;16357;52.188;7.838;2023-04-16T11:50:20;17.73;;;12.30;;
29370;SDS011;16357;52.188;7.838;2023-04-16T11:52:49;15.60;;;11.82;;
29370;SDS011;16357;52.188;7.838;2023-04-16T11:55:16;16.88;;;12.35;;
29370;SDS011;16357;52.188;7.838;2023-04-16T11:57:43;17.83;;;12.25;;
29370;SDS011;16357;52.188;7.838;2023-04-16T12:00:11;18.25;;;12.73;;
29370;SDS011;16357;52.188;7.838;2023-04-16T12:02:43;17.52;;;12.75;;
29370;SDS011;16357;52.188;7.838;2023-04-16T12:05:30;15.80;;;12.32;;
29370;SDS011;16357;52.188;7.838;2023-04-16T12:08:07;16.90;;;12.23;;
29370;SDS011;16357;52.188;7.838;2023-04-16T12:10:36;17.20;;;12.65;;
29370;SDS011;16357;52.188;7.838;2023-04-16T12:13:18;18.27;;;13.52;;
29370;SDS011;16357;52.188;7.838;2023-04-16T12:15:45;16.52;;;12.85;;
29370;SDS011;16357;52.188;7.838;2023-04-16T12:18:13;17.20;;;12.60;;
29370;SDS011;16357;52.188;7.838;2023-04-16T12:20:43;17.48;;;12.50;;
29370;SDS011;16357;52.188;7.838;2023-04-16T12:25:58;15.60;;;12.38;;
29370;SDS011;16357;52.188;7.838;2023-04-16T12:28:35;15.65;;;11.85;;
29370;SDS011;16357;52.188;7.838;2023-04-16T12:31:03;15.27;;;12.10;;
29370;SDS011;16357;52.188;7.838;2023-04-16T12:33:31;16.55;;;12.23;;
29370;SDS011;16357;52.188;7.838;2023-04-16T12:35:57;15.82;;;12.50;;
29370;SDS011;16357;52.188;7.838;2023-04-16T12:38:25;14.00;;;11.55;;
29370;SDS011;16357;52.188;7.838;2023-04-16T12:40:52;16.42;;;11.30;;
29370;SDS011;16357;52.188;7.838;2023-04-16T12:43:22;14.48;;;10.98;;
29370;SDS011;16357;52.188;7.838;2023-04-16T12:45:48;14.55;;;10.40;;
29370;SDS011;16357;52.188;7.838;2023-04-16T12:48:15;17.52;;;11.48;;
29370;SDS011;16357;52.188;7.838;2023-04-16T12:50:41;15.32;;;11.68;;
29370;SDS011;16357;52.188;7.838;2023-04-16T12:53:09;14.50;;;11.25;;
29370;SDS011;16357;52.188;7.838;2023-04-16T12:55:36;15.18;;;11.55;;
29370;SDS011;16357;52.188;7.838;2023-04-16T12:58:03;16.52;;;11.50;;
29370;SDS011;16357;52.188;7.838;2023-04-16T13:00:29;13.85;;;11.15;;
29370;SDS011;16357;52.188;7.838;2023-04-16T13:02:56;15.27;;;11.93;;
29370;SDS011;16357;52.188;7.838;2023-04-16T13:05:22;14.02;;;11.45;;
29370;SDS011;16357;52.188;7.838;2023-04-16T13:07:49;17.23;;;12.73;;
29370;SDS011;16357;52.188;7.838;2023-04-16T13:10:15;18.20;;;12.02;;
29370;SDS011;16357;52.188;7.838;2023-04-16T13:12:42;18.70;;;12.80;;
29370;SDS011;16357;52.188;7.838;2023-04-16T13:15:09;18.10;;;13.13;;
29370;SDS011;16357;52.188;7.838;2023-04-16T13:17:35;18.90;;;13.05;;
29370;SDS011;16357;52.188;7.838;2023-04-16T13:20:02;14.63;;;12.13;;
29370;SDS011;16357;52.188;7.838;2023-04-16T13:22:29;15.15;;;12.40;;
29370;SDS011;16357;52.188;7.838;2023-04-16T13:24:56;18.65;;;12.13;;
29370;SDS011;16357;52.188;7.838;2023-04-16T13:27:22;15.60;;;12.15;;
29370;SDS011;16357;52.188;7.838;2023-04-16T13:29:49;16.10;;;11.82;;
29370;SDS011;16357;52.188;7.838;2023-04-16T13:32:16;15.90;;;11.93;;
29370;SDS011;16357;52.188;7.838;2023-04-16T13:34:43;15.63;;;12.32;;
29370;SDS011;16357;52.188;7.838;2023-04-16T13:37:10;14.77;;;12.23;;
29370;SDS011;16357;52.188;7.838;2023-04-16T13:39:38;15.20;;;12.32;;
29370;SDS011;16357;52.188;7.838;2023-04-16T13:42:04;16.33;;;11.50;;
29370;SDS011;16357;52.188;7.838;2023-04-16T13:44:31;15.68;;;12.15;;
29370;SDS011;16357;52.188;7.838;2023-04-16T13:46:57;14.98;;;11.63;;
29370;SDS011;16357;52.188;7.838;2023-04-16T13:49:24;14.55;;;11.93;;
29370;SDS011;16357;52.188;7.838;2023-04-16T13:51:50;12.23;;;10.90;;
29370;SDS011;16357;52.188;7.838;2023-04-16T13:54:17;14.57;;;11.07;;
29370;SDS011;16357;52.188;7.838;2023-04-16T13:56:43;15.82;;;11.25;;
29370;SDS011;16357;52.188;7.838;2023-04-16T13:59:10;14.93;;;11.77;;
29370;SDS011;16357;52.188;7.838;2023-04-16T14:01:37;13.55;;;11.35;;
29370;SDS011;16357;52.188;7.838;2023-04-16T14:04:03;12.90;;;11.18;;
29370;SDS011;16357;52.188;7.838;2023-04-16T14:06:32;14.65;;;11.00;;
29370;SDS011;16357;52.188;7.838;2023-04-16T14:08:59;16.42;;;10.32;;
29370;SDS011;16357;52.188;7.838;2023-04-16T14:11:26;13.10;;;10.50;;
29370;SDS011;16357;52.188;7.838;2023-04-16T14:13:54;13.90;;;11.07;;
29370;SDS011;16357;52.188;7.838;2023-04-16T14:16:21;13.30;;;9.93;;
29370;SDS011;16357;52.188;7.838;2023-04-16T14:18:48;14.73;;;10.80;;
29370;SDS011;16357;52.188;7.838;2023-04-16T14:21:14;11.55;;;9.85;;
29370;SDS011;16357;52.188;7.838;2023-04-16T14:23:41;13.90;;;9.88;;
29370;SDS011;16357;52.188;7.838;2023-04-16T14:26:07;13.73;;;10.90;;
29370;SDS011;16357;52.188;7.838;2023-04-16T14:28:34;12.90;;;10.10;;
29370;SDS011;16357;52.188;7.838;2023-04-16T14:31:00;14.02;;;10.43;;
29370;SDS011;16357;52.188;7.838;2023-04-16T14:33:27;13.13;;;10.63;;
29370;SDS011;16357;52.188;7.838;2023-04-16T14:35:53;15.18;;;11.05;;
29370;SDS011;16357;52.188;7.838;2023-04-16T14:38:20;13.73;;;10.20;;